createdAt,value
2023-04-25T00:00:01.788Z,8.89
2023-04-25T00:15:02.438Z,8.94
2023-04-25T00:30:02.058Z,9.09
2023-04-25T00:45:01.681Z,9.25
2023-04-25T01:00:02.301Z,9.41
2023-04-25T01:15:01.959Z,9.3
2023-04-25T01:30:01.630Z,9.23
2023-04-25T01:45:02.212Z,9.09
2023-04-25T02:00:01.939Z,8.9
2023-04-25T02:15:01.638Z,9.05
2023-04-25T02:30:02.285Z,8.66
2023-04-25T02:45:01.919Z,8.59
2023-04-25T03:00:02.534Z,8.47
2023-04-25T03:15:02.121Z,8.55
2023-04-25T03:30:01.820Z,8.23
2023-04-25T03:45:02.468Z,8.15
2023-04-25T04:00:02.128Z,8.32
2023-04-25T04:15:01.772Z,7.98
2023-04-25T04:30:01.986Z,8
2023-04-25T04:45:01.738Z,7.95
2023-04-25T05:00:02.405Z,8.04
2023-04-25T05:15:02.024Z,7.86
2023-04-25T05:30:01.702Z,7.86
2023-04-25T05:45:02.327Z,7.82
2023-04-25T06:00:01.974Z,7.98
2023-04-25T06:15:02.076Z,8.21
2023-04-25T06:30:01.901Z,8.17
2023-04-25T06:45:02.544Z,8.33
2023-04-25T07:00:02.600Z,8.48
2023-04-25T07:15:02.372Z,8.59
2023-04-25T07:30:01.993Z,9.03
2023-04-25T07:45:01.752Z,9.12
2023-04-25T08:00:02.357Z,9.35
2023-04-25T08:15:01.976Z,9.4
2023-04-25T08:30:01.625Z,9.86
2023-04-25T08:45:04.354Z,10.39
2023-04-25T09:00:01.783Z,10.18
2023-04-25T09:15:02.431Z,10.08
2023-04-25T09:30:02.115Z,10.18
2023-04-25T09:45:01.746Z,10.11
2023-04-25T10:00:02.440Z,10.61
2023-04-25T10:15:02.050Z,10.5
2023-04-25T10:30:01.692Z,10.43
2023-04-25T10:45:02.288Z,10.55
2023-04-25T11:00:01.938Z,10.41
2023-04-25T11:15:01.614Z,10.5
2023-04-25T11:30:02.289Z,10.76
2023-04-25T11:45:01.923Z,11.33
2023-04-25T12:00:01.552Z,11.48
2023-04-25T12:15:02.159Z,11.05
2023-04-25T12:30:01.908Z,10.61
2023-04-25T12:45:01.585Z,10.68
2023-04-25T13:00:02.255Z,10.92
2023-04-25T13:15:01.859Z,11.19
2023-04-25T13:30:02.549Z,10.88
2023-04-25T13:45:02.181Z,11.4
2023-04-25T14:00:01.801Z,11.45
2023-04-25T14:15:02.464Z,10.76
2023-04-25T14:30:02.263Z,10.57
2023-04-25T14:45:02.020Z,10.71
2023-04-25T15:00:01.766Z,11.15
2023-04-25T15:15:02.504Z,10.74
2023-04-25T15:30:02.162Z,10.68
2023-04-25T15:45:01.780Z,10.63
2023-04-25T16:00:02.417Z,10.36
2023-04-25T16:15:02.024Z,10.54
2023-04-25T16:30:01.693Z,10.07
2023-04-25T16:45:02.281Z,10.27
2023-04-25T17:00:01.912Z,10.3
2023-04-25T17:15:01.572Z,10.09
2023-04-25T17:30:02.251Z,9.92
2023-04-25T17:45:01.887Z,9.68
2023-04-25T18:00:03.932Z,10.02
2023-04-25T18:15:02.313Z,9.71
2023-04-25T18:30:02.078Z,9.41
2023-04-25T18:45:01.797Z,9.37
2023-04-25T19:00:02.467Z,9.14
2023-04-25T19:15:02.071Z,8.93
2023-04-25T19:30:01.747Z,8.61
2023-04-25T19:45:02.353Z,8.42
2023-04-25T20:00:02.077Z,8.19
2023-04-25T20:15:01.767Z,7.93
2023-04-25T20:30:02.443Z,7.71
2023-04-25T20:45:02.057Z,7.49
2023-04-25T21:00:01.683Z,7.22
2023-04-25T21:15:02.307Z,7.03
2023-04-25T21:30:01.944Z,6.8
2023-04-25T21:45:01.579Z,6.55
2023-04-25T22:00:02.198Z,6.31
2023-04-25T22:15:01.820Z,6.11
2023-04-25T22:30:02.493Z,5.94
2023-04-25T22:45:02.114Z,5.75
2023-04-25T23:00:01.721Z,5.55
2023-04-25T23:15:02.368Z,5.35
2023-04-25T23:30:02.039Z,5.16
2023-04-25T23:45:01.667Z,5.04
